createdAt,value
2022-09-16T00:01:14.618Z,11.10
2022-09-16T00:11:20.267Z,11.07
2022-09-16T00:21:23.741Z,11.04
2022-09-16T00:31:28.168Z,11.03
2022-09-16T00:41:33.437Z,10.94
2022-09-16T00:51:39.837Z,10.71
2022-09-16T01:01:44.916Z,10.49
2022-09-16T01:11:49.451Z,10.18
2022-09-16T01:21:58.243Z,9.88
2022-09-16T01:32:07.511Z,9.73
2022-09-16T01:42:21.765Z,9.61
2022-09-16T01:52:36.149Z,9.46
2022-09-16T02:02:43.023Z,9.32
2022-09-16T02:12:51.919Z,9.29
2022-09-16T02:23:00.403Z,9.43
2022-09-16T02:33:10.212Z,9.63
2022-09-16T02:43:13.874Z,9.84
2022-09-16T02:53:28.928Z,9.90
2022-09-16T03:03:31.909Z,9.94
2022-09-16T03:13:45.899Z,9.98
2022-09-16T03:23:58.393Z,10.03
2022-09-16T03:34:08.107Z,10.05
2022-09-16T03:44:11.049Z,9.95
2022-09-16T03:54:15.429Z,9.84
2022-09-16T04:04:18.474Z,9.85
2022-09-16T04:14:22.830Z,9.81
2022-09-16T04:24:26.573Z,9.83
2022-09-16T04:34:32.311Z,9.93
2022-09-16T04:44:35.264Z,10.09
2022-09-16T04:54:39.617Z,10.18
2022-09-16T05:04:42.601Z,10.19
2022-09-16T05:14:46.915Z,10.14
2022-09-16T05:24:49.883Z,10.15
2022-09-16T05:34:54.912Z,10.30
2022-09-16T05:44:57.828Z,10.45
2022-09-16T05:55:02.196Z,10.59
2022-09-16T06:05:05.733Z,10.65
2022-09-16T06:15:12.596Z,10.65
2022-09-16T06:25:15.874Z,10.83
2022-09-16T06:35:20.284Z,10.93
2022-09-16T06:45:23.805Z,11.08
2022-09-16T06:55:28.155Z,11.10
2022-09-16T07:05:31.222Z,10.97
2022-09-16T07:15:50.942Z,11.00
2022-09-16T07:26:03.227Z,11.39
2022-09-16T07:36:09.586Z,12.04
2022-09-16T07:46:14.801Z,12.34
2022-09-16T07:56:20.891Z,12.34
2022-09-16T08:06:26.329Z,11.93
2022-09-16T08:16:30.959Z,11.89
2022-09-16T08:26:34.047Z,12.31
2022-09-16T08:36:38.601Z,12.45
2022-09-16T08:46:50.059Z,12.80
2022-09-16T08:56:56.276Z,13.33
2022-09-16T09:07:08.185Z,13.86
2022-09-16T09:17:22.223Z,14.53
2022-09-16T09:27:29.280Z,14.31
2022-09-16T09:37:50.818Z,14.54
2022-09-16T09:47:59.004Z,15.03
2022-09-16T09:58:24.891Z,15.27
2022-09-16T10:08:31.676Z,13.66
2022-09-16T10:18:36.293Z,10.43
2022-09-16T10:28:39.714Z,10.08
2022-09-16T10:38:45.643Z,10.14
2022-09-16T10:48:51.999Z,10.31
2022-09-16T10:59:07.455Z,11.25
2022-09-16T11:09:18.853Z,11.93
2022-09-16T11:19:32.894Z,12.35
2022-09-16T11:29:52.020Z,12.28
2022-09-16T11:40:13.737Z,12.57
2022-09-16T11:50:34.752Z,13.41
2022-09-16T12:00:40.569Z,13.74
2022-09-16T12:10:49.686Z,13.26
2022-09-16T12:21:01.266Z,12.45
2022-09-16T12:31:12.002Z,12.13
2022-09-16T12:41:35.178Z,12.02
2022-09-16T12:52:03.212Z,11.77
2022-09-16T13:02:13.640Z,11.57
2022-09-16T13:22:51.998Z,10.83
2022-09-16T13:33:14.936Z,10.45
2022-09-16T13:43:30.951Z,10.61
2022-09-16T13:53:37.903Z,11.09
2022-09-16T14:03:58.718Z,11.64
2022-09-16T14:14:06.833Z,12.30
2022-09-16T14:24:20.350Z,11.97
2022-09-16T14:34:29.270Z,11.69
2022-09-16T14:44:38.468Z,11.95
2022-09-16T14:54:45.633Z,12.74
2022-09-16T15:04:58.237Z,13.56
2022-09-16T15:15:05.923Z,13.78
2022-09-16T15:25:26.491Z,13.56
2022-09-16T15:35:50.359Z,13.33
2022-09-16T15:46:03.294Z,12.94
2022-09-16T15:56:10.130Z,12.77
2022-09-16T16:06:14.731Z,12.60
2022-09-16T16:16:19.216Z,12.36
2022-09-16T16:26:24.919Z,12.25
2022-09-16T16:36:30.951Z,11.94
2022-09-16T16:46:37.780Z,11.55
2022-09-16T16:56:47.718Z,11.28
2022-09-16T17:07:14.527Z,10.94
2022-09-16T17:17:17.219Z,10.70
2022-09-16T17:27:24.718Z,10.50
2022-09-16T17:37:27.859Z,10.44
2022-09-16T17:47:32.676Z,10.07
2022-09-16T17:57:35.718Z,9.62
2022-09-16T18:07:40.145Z,9.38
2022-09-16T18:17:43.268Z,9.26
2022-09-16T18:27:47.676Z,9.19
2022-09-16T18:37:50.836Z,9.18
2022-09-16T18:47:56.483Z,9.22
2022-09-16T18:57:59.501Z,9.39
2022-09-16T19:08:04.021Z,9.30
2022-09-16T19:18:07.107Z,9.35
2022-09-16T19:28:11.668Z,9.35
2022-09-16T19:38:15.197Z,9.30
2022-09-16T19:48:19.618Z,9.12
2022-09-16T19:58:22.601Z,8.90
2022-09-16T20:08:27.046Z,8.75
2022-09-16T20:18:30.953Z,8.71
2022-09-16T20:28:37.097Z,8.78
2022-09-16T20:38:41.362Z,8.79
2022-09-16T20:48:46.227Z,8.81
2022-09-16T20:58:49.622Z,9.02
2022-09-16T21:08:55.929Z,8.91
2022-09-16T21:19:01.767Z,8.74
2022-09-16T21:29:09.903Z,8.70
2022-09-16T21:39:15.257Z,8.68
2022-09-16T21:49:24.442Z,8.61
2022-09-16T21:59:27.547Z,8.72
2022-09-16T22:09:31.953Z,8.84
2022-09-16T22:19:35.295Z,8.88
2022-09-16T22:29:39.734Z,8.90
2022-09-16T22:39:42.732Z,8.89
2022-09-16T22:49:47.032Z,8.94
2022-09-16T22:59:50.011Z,8.98
2022-09-16T23:09:54.947Z,9.00
2022-09-16T23:19:57.889Z,9.00
2022-09-16T23:30:02.337Z,8.99
2022-09-16T23:40:06.036Z,8.96
2022-09-16T23:50:11.739Z,8.96
